Time;durP1;ratioP1;P1;durP2;ratioP2;P2;SDS_P1;SDS_P2;PMS_P1;PMS_P2;Temp;Humidity;BMP_temperature;BMP_pressure;BME280_temperature;BME280_humidity;BME280_pressure;Samples;Min_cycle;Max_cycle;Signal;HPM_P1;HPM_P2
2024/02/13 00:02:10;;;;;;;11.93;6.40;;;4.60;99.90;;;;;;5051357;28;20255;-82
2024/02/13 00:04:40;;;;;;;11.97;6.00;;;4.50;99.90;;;;;;5057823;28;20198;-83
2024/02/13 00:07:07;;;;;;;11.83;6.70;;;4.50;99.90;;;;;;5060406;28;20677;-81
2024/02/13 00:09:34;;;;;;;12.80;6.77;;;4.60;99.90;;;;;;5058987;28;20229;-81
2024/02/13 00:12:01;;;;;;;11.93;6.50;;;4.80;99.90;;;;;;5059237;28;20294;-81
2024/02/13 00:14:28;;;;;;;12.47;6.13;;;4.80;99.90;;;;;;5060705;28;20223;-80
2024/02/13 00:16:56;;;;;;;12.17;6.73;;;5.10;99.90;;;;;;5060557;28;20234;-80
2024/02/13 00:19:24;;;;;;;13.87;7.53;;;4.90;99.90;;;;;;5053821;28;20295;-82
2024/02/13 00:21:52;;;;;;;14.57;7.97;;;4.90;99.90;;;;;;5053611;28;20204;-81
2024/02/13 00:24:19;;;;;;;14.20;8.07;;;5.00;99.90;;;;;;5052159;28;20199;-81
2024/02/13 00:26:46;;;;;;;15.33;8.80;;;5.00;99.90;;;;;;5049574;28;20220;-80
2024/02/13 00:29:13;;;;;;;18.37;8.60;;;5.00;99.90;;;;;;5046481;28;20709;-79
2024/02/13 00:31:41;;;;;;;15.73;8.57;;;5.10;99.90;;;;;;5052730;28;20225;-83
2024/02/13 00:34:08;;;;;;;16.80;8.87;;;5.10;99.90;;;;;;5052863;28;20199;-82
2024/02/13 00:36:35;;;;;;;15.17;8.17;;;5.10;99.90;;;;;;5053911;28;20290;-80
2024/02/13 00:39:03;;;;;;;17.10;8.77;;;5.20;99.90;;;;;;5047177;28;20287;-83
2024/02/13 00:41:30;;;;;;;15.43;8.13;;;5.20;99.90;;;;;;5052865;28;20288;-82
2024/02/13 00:43:57;;;;;;;16.67;8.77;;;5.20;99.90;;;;;;5050894;28;20206;-82
2024/02/13 00:46:24;;;;;;;16.07;8.97;;;5.40;99.90;;;;;;5053870;28;20669;-81
2024/02/13 00:48:52;;;;;;;17.10;8.77;;;5.20;99.90;;;;;;5056861;28;20216;-82
2024/02/13 00:51:18;;;;;;;16.63;8.63;;;5.20;99.90;;;;;;5056312;28;20204;-82
2024/02/13 00:53:45;;;;;;;15.40;8.53;;;5.20;99.90;;;;;;5055451;28;20210;-82
2024/02/13 00:56:13;;;;;;;16.30;8.97;;;5.20;99.90;;;;;;5053130;28;20693;-81
2024/02/13 00:58:43;;;;;;;19.23;10.07;;;5.10;99.90;;;;;;5052740;28;20701;-81
2024/02/13 01:01:10;;;;;;;18.00;9.80;;;5.10;99.90;;;;;;5053663;28;20200;-81
2024/02/13 01:03:37;;;;;;;19.70;10.43;;;5.10;99.90;;;;;;5056249;28;20199;-81
2024/02/13 01:06:06;;;;;;;17.67;9.60;;;5.10;99.90;;;;;;5049861;28;20223;-80
2024/02/13 01:08:33;;;;;;;18.07;8.73;;;5.10;99.90;;;;;;5054784;28;20241;-82
2024/02/13 01:11:00;;;;;;;15.63;8.63;;;5.00;99.90;;;;;;5051209;28;20207;-82
2024/02/13 01:13:28;;;;;;;20.13;9.13;;;5.00;99.90;;;;;;5048992;28;20214;-81
2024/02/13 01:15:55;;;;;;;17.40;8.77;;;5.00;99.90;;;;;;5053093;28;20195;-81
2024/02/13 01:18:24;;;;;;;17.33;8.60;;;5.00;99.90;;;;;;5053237;28;20215;-81
2024/02/13 01:20:51;;;;;;;21.00;10.43;;;4.90;99.90;;;;;;5052215;28;20203;-81
2024/02/13 01:23:17;;;;;;;17.77;9.30;;;4.90;99.90;;;;;;5049397;28;20207;-83
2024/02/13 01:25:44;;;;;;;17.17;8.63;;;4.90;99.90;;;;;;5048544;28;20222;-82
2024/02/13 01:28:11;;;;;;;21.00;9.57;;;4.80;99.90;;;;;;5052227;28;20222;-82
2024/02/13 01:30:39;;;;;;;18.17;9.60;;;4.70;99.90;;;;;;5051985;28;20206;-82
2024/02/13 01:33:06;;;;;;;17.43;9.93;;;4.80;99.90;;;;;;5044196;28;20211;-82
2024/02/13 01:35:33;;;;;;;17.27;9.43;;;4.80;99.90;;;;;;5045486;28;20609;-82
2024/02/13 01:38:00;;;;;;;18.63;9.23;;;4.80;99.90;;;;;;5046828;28;20222;-82
2024/02/13 01:40:27;;;;;;;16.97;9.53;;;4.80;99.90;;;;;;5047693;28;20210;-82
2024/02/13 01:42:54;;;;;;;18.90;9.60;;;4.90;99.90;;;;;;5050961;28;20203;-82
2024/02/13 01:45:21;;;;;;;19.23;10.67;;;4.90;99.90;;;;;;5049170;28;20672;-82
2024/02/13 01:47:49;;;;;;;22.83;11.73;;;5.10;99.90;;;;;;5050051;28;20223;-80
2024/02/13 01:50:20;;;;;;;19.63;11.53;;;5.20;99.90;;;;;;5053403;28;20214;-80
2024/02/13 01:52:49;;;;;;;17.73;10.13;;;5.20;99.90;;;;;;5049237;28;20207;-81
2024/02/13 01:55:18;;;;;;;19.83;10.77;;;5.30;99.90;;;;;;5048134;28;20214;-82
2024/02/13 01:57:45;;;;;;;18.40;11.10;;;5.30;99.90;;;;;;5050190;28;20215;-81
2024/02/13 02:00:14;;;;;;;20.83;10.90;;;5.40;99.90;;;;;;5048110;28;20207;-78
2024/02/13 02:02:42;;;;;;;21.30;11.00;;;5.50;99.90;;;;;;5053958;28;20210;-81
2024/02/13 02:05:13;;;;;;;18.80;10.63;;;5.50;99.90;;;;;;5051982;28;20215;-82
2024/02/13 02:07:41;;;;;;;17.63;10.30;;;5.60;99.90;;;;;;5058430;28;20301;-82
2024/02/13 02:10:09;;;;;;;21.57;11.60;;;5.60;99.90;;;;;;5052212;28;20269;-82
2024/02/13 02:12:36;;;;;;;19.20;10.57;;;5.60;99.90;;;;;;5055958;28;20205;-82
2024/02/13 02:15:04;;;;;;;18.30;10.53;;;5.60;99.90;;;;;;5054969;28;20206;-82
2024/02/13 02:17:31;;;;;;;18.80;10.50;;;5.60;99.90;;;;;;5054986;28;20780;-81
2024/02/13 02:19:58;;;;;;;19.03;11.33;;;5.80;99.90;;;;;;5054048;28;20226;-82
2024/02/13 02:22:26;;;;;;;21.13;11.97;;;5.60;99.90;;;;;;5043665;28;20200;-81
2024/02/13 02:24:53;;;;;;;22.60;11.97;;;5.60;99.90;;;;;;5046997;28;20245;-82
2024/02/13 02:27:22;;;;;;;22.03;11.30;;;5.60;99.90;;;;;;5044383;28;20215;-81
2024/02/13 02:29:48;;;;;;;17.87;10.00;;;5.60;99.90;;;;;;5050041;28;20318;-83
2024/02/13 02:32:15;;;;;;;19.03;10.27;;;5.60;99.90;;;;;;5045254;28;20678;-81
2024/02/13 02:34:42;;;;;;;19.97;11.10;;;5.60;99.90;;;;;;5044599;28;20207;-83
2024/02/13 02:37:09;;;;;;;19.73;10.37;;;5.60;99.90;;;;;;5043639;28;20196;-83
2024/02/13 02:39:36;;;;;;;19.77;10.80;;;5.50;99.90;;;;;;5044110;28;20210;-82
2024/02/13 02:42:03;;;;;;;21.43;11.17;;;5.50;99.90;;;;;;5047416;28;20206;-82
2024/02/13 02:44:31;;;;;;;21.30;11.17;;;5.40;99.90;;;;;;5049821;28;20208;-81
2024/02/13 02:46:59;;;;;;;19.13;10.97;;;5.40;99.90;;;;;;5048988;28;20343;-81
2024/02/13 02:49:26;;;;;;;20.83;10.47;;;5.40;99.90;;;;;;5049016;28;20222;-82
2024/02/13 02:51:53;;;;;;;19.83;10.03;;;5.60;99.90;;;;;;5049621;28;20288;-84
2024/02/13 02:54:20;;;;;;;20.47;10.37;;;5.30;99.90;;;;;;5045549;28;20217;-82
2024/02/13 02:56:47;;;;;;;20.60;10.93;;;5.30;99.90;;;;;;5048033;28;20198;-81
2024/02/13 02:59:14;;;;;;;17.57;10.40;;;5.20;99.90;;;;;;5050982;28;20299;-83
2024/02/13 03:01:42;;;;;;;20.50;10.07;;;5.20;99.90;;;;;;5050272;28;20221;-81
2024/02/13 03:04:09;;;;;;;15.50;9.57;;;5.10;99.90;;;;;;5051129;28;20206;-83
2024/02/13 03:06:38;;;;;;;16.73;9.50;;;5.10;99.90;;;;;;5052218;28;20218;-83
2024/02/13 03:09:05;;;;;;;19.73;9.90;;;5.10;99.90;;;;;;5049140;28;20230;-80
2024/02/13 03:11:33;;;;;;;17.17;9.60;;;5.10;99.90;;;;;;5051610;28;20644;-82
2024/02/13 03:13:59;;;;;;;17.23;8.77;;;5.00;99.90;;;;;;5052808;28;20333;-82
2024/02/13 03:16:29;;;;;;;18.33;9.47;;;5.10;99.90;;;;;;5053598;28;20203;-82
2024/02/13 03:18:58;;;;;;;18.67;8.93;;;5.10;99.90;;;;;;5053437;28;20215;-80
2024/02/13 03:21:25;;;;;;;17.07;9.40;;;5.10;99.90;;;;;;5055004;28;20214;-80
2024/02/13 03:23:52;;;;;;;16.37;8.47;;;5.00;99.90;;;;;;5051204;28;20255;-81
2024/02/13 03:26:19;;;;;;;14.93;9.03;;;5.10;99.90;;;;;;5051304;28;20183;-82
2024/02/13 03:28:45;;;;;;;15.77;9.33;;;5.10;99.90;;;;;;5047477;28;20246;-80
2024/02/13 03:31:12;;;;;;;17.47;9.20;;;5.10;99.90;;;;;;5046816;28;20625;-78
2024/02/13 03:33:39;;;;;;;15.73;7.80;;;5.10;99.90;;;;;;5049458;28;20199;-82
2024/02/13 03:36:08;;;;;;;16.53;8.10;;;5.00;16.00;;;;;;5045026;28;20206;-82
2024/02/13 03:38:34;;;;;;;18.97;8.87;;;5.10;1.00;;;;;;5044848;28;20231;-82
2024/02/13 03:41:02;;;;;;;13.40;8.00;;;5.00;1.00;;;;;;5046433;28;20203;-82
2024/02/13 03:43:28;;;;;;;16.53;8.00;;;5.20;1.00;;;;;;5050062;28;20222;-82
2024/02/13 03:45:55;;;;;;;15.90;8.13;;;5.00;1.00;;;;;;5054470;28;20588;-82
2024/02/13 03:48:22;;;;;;;16.73;8.10;;;5.00;1.00;;;;;;5057505;28;20227;-80
2024/02/13 03:50:49;;;;;;;15.90;7.70;;;4.90;1.00;;;;;;5050745;28;20271;-82
2024/02/13 03:53:17;;;;;;;13.03;7.00;;;4.90;99.90;;;;;;5054134;28;20206;-82
2024/02/13 03:55:44;;;;;;;15.30;6.60;;;4.90;99.90;;;;;;5053335;28;20199;-81
2024/02/13 03:58:12;;;;;;;15.80;7.83;;;4.90;1.00;;;;;;5052499;28;20309;-80
2024/02/13 04:00:40;;;;;;;12.93;6.93;;;4.80;1.00;;;;;;5055883;28;20234;-79
2024/02/13 04:03:07;;;;;;;13.07;7.23;;;4.80;99.90;;;;;;5053378;28;20200;-79
2024/02/13 04:05:37;;;;;;;11.90;6.60;;;4.70;99.90;;;;;;5053653;28;20203;-82
2024/02/13 04:08:06;;;;;;;15.33;6.73;;;4.70;1.00;;;;;;5055150;28;20286;-82
2024/02/13 04:10:35;;;;;;;15.67;5.93;;;4.60;1.00;;;;;;5058178;28;20671;-81
2024/02/13 04:13:01;;;;;;;10.40;5.90;;;4.60;99.90;;;;;;5058090;28;20199;-81
2024/02/13 04:15:28;;;;;;;13.77;6.50;;;4.60;99.90;;;;;;5057636;28;20207;-80
2024/02/13 04:17:55;;;;;;;12.13;6.80;;;4.50;99.90;;;;;;5054971;28;20234;-81
2024/02/13 04:20:22;;;;;;;12.47;7.00;;;4.50;99.90;;;;;;5060153;28;20203;-81
2024/02/13 04:22:49;;;;;;;13.03;6.80;;;4.40;99.90;;;;;;5058008;28;20249;-83
2024/02/13 04:25:16;;;;;;;13.33;6.57;;;4.30;1.00;;;;;;5055996;28;20685;-82
2024/02/13 04:27:45;;;;;;;11.93;7.20;;;4.20;1.00;;;;;;5057451;28;20254;-82
2024/02/13 04:30:13;;;;;;;17.83;9.83;;;4.10;1.00;;;;;;5055612;28;20640;-81
2024/02/13 04:32:41;;;;;;;15.30;7.30;;;4.00;1.00;;;;;;5059065;28;20679;-79
2024/02/13 04:35:08;;;;;;;14.20;6.07;;;3.80;1.00;;;;;;5052657;28;20223;-80
2024/02/13 04:37:35;;;;;;;10.83;6.00;;;3.60;51.70;;;;;;5049450;28;20757;-82
2024/02/13 04:40:02;;;;;;;12.23;5.83;;;3.50;99.90;;;;;;5054904;28;20198;-79
2024/02/13 04:42:31;;;;;;;12.90;5.80;;;3.50;99.90;;;;;;5059208;28;20207;-82
2024/02/13 04:45:00;;;;;;;13.43;6.43;;;3.40;99.90;;;;;;5050758;28;20301;-82
2024/02/13 04:47:28;;;;;;;13.93;5.27;;;3.30;99.90;;;;;;5051713;28;20323;-82
2024/02/13 04:49:56;;;;;;;9.20;5.20;;;3.30;99.90;;;;;;5050771;28;20199;-81
2024/02/13 04:52:23;;;;;;;16.43;7.50;;;3.30;99.90;;;;;;5052057;28;20322;-82
2024/02/13 04:54:49;;;;;;;11.83;6.07;;;3.40;99.90;;;;;;5055247;28;20203;-82
2024/02/13 04:57:17;;;;;;;14.20;6.40;;;3.30;99.90;;;;;;5053262;28;20208;-81
2024/02/13 04:59:48;;;;;;;13.17;6.13;;;3.40;99.90;;;;;;5056537;28;20265;-79
2024/02/13 05:02:18;;;;;;;12.10;6.13;;;3.20;99.90;;;;;;5053230;28;20209;-78
2024/02/13 05:07:29;;;;;;;15.17;6.97;;;3.40;99.90;;;;;;5057176;28;20230;-80
2024/02/13 05:09:56;;;;;;;12.17;6.30;;;3.50;99.90;;;;;;5055810;28;20267;-79
2024/02/13 05:12:23;;;;;;;13.50;6.13;;;3.50;99.90;;;;;;5058685;28;20211;-81
2024/02/13 05:14:52;;;;;;;12.13;6.63;;;3.60;99.90;;;;;;5061829;28;20238;-82
2024/02/13 05:17:20;;;;;;;14.60;7.67;;;3.80;99.90;;;;;;5059568;28;20200;-82
2024/02/13 05:19:49;;;;;;;16.40;8.33;;;3.90;99.90;;;;;;5061749;28;20218;-82
2024/02/13 05:22:16;;;;;;;20.60;8.77;;;4.10;99.90;;;;;;5059090;28;20234;-82
2024/02/13 05:24:43;;;;;;;16.27;8.70;;;4.00;99.90;;;;;;5058769;28;20222;-82
2024/02/13 05:27:10;;;;;;;18.33;9.67;;;3.90;99.90;;;;;;5058001;28;20698;-81
2024/02/13 05:29:38;;;;;;;16.27;8.73;;;3.90;99.90;;;;;;5057912;28;20233;-81
2024/02/13 05:32:05;;;;;;;18.33;8.83;;;3.70;99.90;;;;;;5062688;28;20203;-82
2024/02/13 05:34:34;;;;;;;18.07;8.33;;;3.70;99.90;;;;;;5060450;28;20211;-80
2024/02/13 05:37:01;;;;;;;17.43;8.77;;;3.60;99.90;;;;;;5050656;28;20230;-80
2024/02/13 05:39:28;;;;;;;13.13;7.57;;;3.40;99.90;;;;;;5047178;28;20230;-82
2024/02/13 05:41:55;;;;;;;13.80;7.30;;;3.30;99.90;;;;;;5047194;28;20261;-82
2024/02/13 05:44:22;;;;;;;15.10;7.07;;;3.20;99.90;;;;;;5047791;28;20785;-79
2024/02/13 05:46:49;;;;;;;13.90;7.77;;;3.20;99.90;;;;;;5049876;28;20222;-81
2024/02/13 05:49:16;;;;;;;13.97;7.83;;;3.10;99.90;;;;;;5050233;28;20227;-82
2024/02/13 05:51:46;;;;;;;14.40;7.20;;;3.00;99.90;;;;;;5056063;28;20722;-82
2024/02/13 05:54:14;;;;;;;15.40;7.83;;;2.90;99.90;;;;;;5055226;28;20230;-81
2024/02/13 05:56:41;;;;;;;12.23;6.90;;;3.00;99.90;;;;;;5050518;28;20248;-80
2024/02/13 05:59:09;;;;;;;11.07;7.00;;;2.70;99.90;;;;;;5051367;28;20665;-82
2024/02/13 06:01:36;;;;;;;17.07;8.47;;;2.70;99.90;;;;;;5056097;28;20207;-81
2024/02/13 06:04:05;;;;;;;12.73;7.20;;;2.80;99.90;;;;;;5051915;28;20204;-81
2024/02/13 06:06:33;;;;;;;15.63;8.07;;;2.80;99.90;;;;;;5054629;28;20208;-82
2024/02/13 06:09:02;;;;;;;18.30;7.80;;;2.80;99.90;;;;;;5055893;28;20299;-81
2024/02/13 06:11:29;;;;;;;15.20;8.10;;;2.90;99.90;;;;;;5060927;28;20206;-81
2024/02/13 06:13:55;;;;;;;19.07;9.33;;;3.00;99.90;;;;;;5057957;28;20217;-81
2024/02/13 06:16:22;;;;;;;16.77;9.10;;;3.70;99.90;;;;;;5060741;28;20250;-81
2024/02/13 06:18:49;;;;;;;17.67;9.57;;;3.10;99.90;;;;;;5061514;28;20314;-82
2024/02/13 06:21:18;;;;;;;22.13;9.53;;;3.20;99.90;;;;;;5058211;28;20201;-80
2024/02/13 06:23:45;;;;;;;17.43;9.77;;;3.10;99.90;;;;;;5053598;28;20662;-82
2024/02/13 06:26:14;;;;;;;18.20;9.70;;;3.10;99.90;;;;;;5055557;28;20206;-82
2024/02/13 06:28:41;;;;;;;22.50;10.83;;;3.20;99.90;;;;;;5054034;28;20230;-80
2024/02/13 06:31:07;;;;;;;23.20;11.30;;;3.40;99.90;;;;;;5057998;28;20206;-82
2024/02/13 06:33:34;;;;;;;27.60;12.23;;;3.50;99.90;;;;;;5056519;28;20222;-82
2024/02/13 06:36:01;;;;;;;23.87;12.13;;;3.50;99.90;;;;;;5058640;28;20199;-83
2024/02/13 06:38:28;;;;;;;21.43;11.67;;;3.60;99.90;;;;;;5055402;28;20685;-82
2024/02/13 06:40:55;;;;;;;20.97;12.80;;;3.90;99.90;;;;;;5054412;28;20222;-81
2024/02/13 06:43:25;;;;;;;23.17;11.70;;;3.30;99.90;;;;;;5045105;28;20199;-80
2024/02/13 06:45:53;;;;;;;23.33;12.30;;;3.30;99.90;;;;;;5048955;28;20678;-83
2024/02/13 06:48:19;;;;;;;21.17;11.03;;;3.20;99.90;;;;;;5048761;28;20701;-82
2024/02/13 06:50:46;;;;;;;22.00;11.20;;;3.30;99.90;;;;;;5049269;28;20205;-81
2024/02/13 06:53:13;;;;;;;20.03;11.77;;;3.10;99.90;;;;;;5051737;28;20611;-81
2024/02/13 06:55:40;;;;;;;23.47;11.70;;;3.10;99.90;;;;;;5049744;28;20292;-80
2024/02/13 06:58:07;;;;;;;17.83;11.00;;;3.20;99.90;;;;;;5050632;28;20254;-81
2024/02/13 07:00:35;;;;;;;22.53;11.73;;;3.20;99.90;;;;;;5047929;28;20295;-81
2024/02/13 07:03:02;;;;;;;23.00;11.20;;;3.10;99.90;;;;;;5046934;28;20214;-82
2024/02/13 07:05:30;;;;;;;19.93;10.97;;;3.00;99.90;;;;;;5047580;28;20200;-82
2024/02/13 07:07:57;;;;;;;22.43;11.00;;;3.10;99.90;;;;;;5048439;28;20700;-81
2024/02/13 07:10:24;;;;;;;19.87;11.23;;;3.10;99.90;;;;;;5048275;28;20234;-82
2024/02/13 07:12:51;;;;;;;20.63;11.70;;;3.20;99.90;;;;;;5055650;28;20207;-82
2024/02/13 07:15:18;;;;;;;21.90;10.87;;;3.20;99.90;;;;;;5047914;28;20200;-82
2024/02/13 07:17:46;;;;;;;20.50;10.70;;;3.30;99.90;;;;;;5054206;28;20226;-82
2024/02/13 07:20:13;;;;;;;22.30;11.13;;;3.30;99.90;;;;;;5050265;28;20209;-82
2024/02/13 07:22:40;;;;;;;18.00;10.83;;;3.30;99.90;;;;;;5050517;28;20209;-82
2024/02/13 07:25:08;;;;;;;17.37;10.80;;;3.50;99.90;;;;;;5045986;28;20203;-81
2024/02/13 07:27:37;;;;;;;18.37;10.60;;;3.50;99.90;;;;;;5043349;28;20623;-82
2024/02/13 07:30:06;;;;;;;20.43;10.73;;;3.50;99.90;;;;;;5048911;28;20206;-82
2024/02/13 07:32:34;;;;;;;20.60;11.17;;;3.60;99.90;;;;;;5047066;28;20607;-82
2024/02/13 07:35:04;;;;;;;20.27;11.17;;;3.70;99.90;;;;;;5049425;28;20211;-81
2024/02/13 07:37:31;;;;;;;18.83;10.50;;;3.80;99.90;;;;;;5048497;28;20223;-82
2024/02/13 07:39:59;;;;;;;21.70;10.67;;;3.90;99.90;;;;;;5050970;28;20203;-82
2024/02/13 07:42:27;;;;;;;19.47;10.63;;;3.90;99.90;;;;;;5049532;28;20199;-82
2024/02/13 07:44:55;;;;;;;19.20;10.80;;;4.10;99.90;;;;;;5050688;28;21731;-82
2024/02/13 07:47:22;;;;;;;19.70;9.80;;;4.30;99.90;;;;;;5049503;28;20235;-82
2024/02/13 07:49:50;;;;;;;20.10;9.83;;;4.40;99.90;;;;;;5050768;28;20469;-82
2024/02/13 07:52:18;;;;;;;19.10;9.70;;;4.50;99.90;;;;;;5041732;28;20273;-82
2024/02/13 07:54:45;;;;;;;16.90;8.83;;;4.80;99.90;;;;;;5046668;28;20275;-82
2024/02/13 07:57:14;;;;;;;17.57;9.00;;;5.00;99.90;;;;;;5047018;28;20357;-82
2024/02/13 07:59:41;;;;;;;15.67;9.83;;;5.10;1.00;;;;;;5045053;28;20203;-82
2024/02/13 08:02:08;;;;;;;16.70;8.30;;;5.20;1.00;;;;;;5047764;28;20266;-82
2024/02/13 08:04:35;;;;;;;16.23;8.53;;;5.30;99.90;;;;;;5049960;28;20227;-82
2024/02/13 08:07:02;;;;;;;17.50;8.63;;;5.30;99.90;;;;;;5048689;28;20211;-82
2024/02/13 08:09:30;;;;;;;15.87;8.33;;;5.30;1.00;;;;;;5047558;28;20224;-83
2024/02/13 08:11:57;;;;;;;16.80;8.73;;;5.40;1.00;;;;;;5047942;28;20215;-83
2024/02/13 08:14:24;;;;;;;16.50;8.93;;;5.50;1.00;;;;;;5052057;28;20359;-83
2024/02/13 08:16:51;;;;;;;18.73;8.10;;;5.90;63.60;;;;;;5056381;28;20673;-82
2024/02/13 08:19:18;;;;;;;16.83;7.90;;;6.00;99.90;;;;;;5053075;28;20230;-82
2024/02/13 08:21:44;;;;;;;13.93;8.17;;;5.90;99.90;;;;;;5052604;28;20199;-82
2024/02/13 08:24:11;;;;;;;14.37;8.00;;;6.00;99.90;;;;;;5042962;28;20282;-82
2024/02/13 08:26:39;;;;;;;15.20;7.23;;;6.10;41.90;;;;;;5047662;28;20207;-82
2024/02/13 08:29:06;;;;;;;13.40;6.97;;;6.20;1.00;;;;;;5048124;28;20251;-83
2024/02/13 08:31:33;;;;;;;20.37;7.47;;;6.40;1.00;;;;;;5047509;28;20219;-82
2024/02/13 08:34:02;;;;;;;13.23;7.73;;;6.20;1.00;;;;;;5050323;28;20582;-82
2024/02/13 08:36:29;;;;;;;15.40;7.40;;;6.10;99.90;;;;;;5050502;28;20206;-81
2024/02/13 08:38:56;;;;;;;11.50;6.83;;;6.00;99.90;;;;;;5048244;28;20216;-80
2024/02/13 08:41:23;;;;;;;15.00;7.23;;;6.00;99.90;;;;;;5052599;28;20805;-81
2024/02/13 08:43:51;;;;;;;12.80;7.30;;;5.90;99.90;;;;;;5048813;28;20246;-81
2024/02/13 08:46:22;;;;;;;13.03;6.97;;;6.00;99.90;;;;;;5051321;28;20206;-82
2024/02/13 08:48:49;;;;;;;17.73;7.43;;;6.00;99.90;;;;;;5048332;28;20225;-82
2024/02/13 08:51:16;;;;;;;14.67;7.37;;;6.00;99.90;;;;;;5051443;28;20286;-80
2024/02/13 08:53:42;;;;;;;14.30;6.73;;;6.00;1.00;;;;;;5049479;28;20210;-82
2024/02/13 08:56:09;;;;;;;11.83;7.23;;;6.10;1.00;;;;;;5051037;28;20285;-82
2024/02/13 08:58:36;;;;;;;13.20;7.10;;;6.10;1.00;;;;;;5050441;28;20222;-81
2024/02/13 09:01:05;;;;;;;13.27;9.00;;;6.10;1.00;;;;;;5050889;28;20202;-82
2024/02/13 09:03:33;;;;;;;14.80;7.03;;;6.10;1.00;;;;;;5049068;28;20199;-82
2024/02/13 09:06:04;;;;;;;15.50;7.13;;;6.20;1.00;;;;;;5048553;28;20206;-81
2024/02/13 09:08:31;;;;;;;13.23;6.77;;;6.20;1.00;;;;;;5054854;28;20270;-81
2024/02/13 09:10:58;;;;;;;13.57;6.77;;;6.20;1.00;;;;;;5057599;28;20289;-81
2024/02/13 09:13:24;;;;;;;12.30;6.30;;;6.20;1.00;;;;;;5059184;28;20662;-81
2024/02/13 09:15:53;;;;;;;13.50;6.43;;;6.30;1.00;;;;;;5062883;28;20209;-81
2024/02/13 09:18:21;;;;;;;14.20;7.20;;;6.30;1.00;;;;;;5051904;28;20309;-82
2024/02/13 09:20:49;;;;;;;14.67;7.43;;;6.50;1.00;;;;;;5055528;28;20676;-82
2024/02/13 09:23:18;;;;;;;15.20;6.83;;;6.40;99.90;;;;;;5050089;28;20252;-82
2024/02/13 09:25:49;;;;;;;11.00;6.50;;;7.10;99.90;;;;;;5051683;28;20199;-82
2024/02/13 09:28:16;;;;;;;12.53;7.17;;;6.60;99.90;;;;;;5048866;28;20238;-81
2024/02/13 09:30:43;;;;;;;13.63;6.67;;;6.60;99.90;;;;;;5045482;28;20275;-81
2024/02/13 09:33:10;;;;;;;11.93;6.50;;;6.60;40.80;;;;;;5050088;28;20580;-82
2024/02/13 09:35:38;;;;;;;10.80;6.70;;;6.60;1.00;;;;;;5049109;28;20230;-81
2024/02/13 09:38:06;;;;;;;14.47;7.50;;;6.70;1.00;;;;;;5047027;28;20216;-81
2024/02/13 09:40:34;;;;;;;14.27;7.10;;;6.70;1.00;;;;;;5049585;28;20206;-81
2024/02/13 09:43:01;;;;;;;12.20;7.20;;;6.90;1.00;;;;;;5051485;28;20493;-83
2024/02/13 09:45:29;;;;;;;13.53;6.63;;;6.90;1.00;;;;;;5050141;28;20206;-82
2024/02/13 09:48:03;;;;;;;12.97;7.23;;;6.80;99.90;;;;;;5050173;28;20690;-83
2024/02/13 09:50:36;;;;;;;14.07;7.00;;;6.90;99.90;;;;;;5053793;28;20586;-84
2024/02/13 09:53:17;;;;;;;14.60;7.30;;;6.90;99.90;;;;;;5055899;28;20691;-83
2024/02/13 09:55:46;;;;;;;16.47;7.40;;;6.90;99.90;;;;;;5057586;28;20248;-83
2024/02/13 09:58:13;;;;;;;14.33;7.40;;;7.00;99.90;;;;;;5057423;28;20247;-83
2024/02/13 10:00:42;;;;;;;12.90;7.53;;;7.00;99.90;;;;;;5053155;28;20290;-84
2024/02/13 10:03:09;;;;;;;15.47;6.87;;;7.00;47.30;;;;;;5053624;28;20676;-84
2024/02/13 10:05:36;;;;;;;14.90;7.33;;;7.00;1.00;;;;;;5049529;28;20307;-85
2024/02/13 10:08:04;;;;;;;12.83;7.00;;;7.00;1.00;;;;;;5052644;28;20288;-83
2024/02/13 10:10:33;;;;;;;13.10;7.37;;;7.00;1.00;;;;;;5056185;28;20721;-84
2024/02/13 10:13:00;;;;;;;14.80;7.47;;;7.10;58.40;;;;;;5056258;28;20279;-85
2024/02/13 10:15:39;;;;;;;13.20;7.47;;;7.30;1.00;;;;;;5055532;28;20673;-84
2024/02/13 10:18:07;;;;;;;13.27;7.47;;;7.10;1.00;;;;;;5057841;28;20603;-83
2024/02/13 10:20:34;;;;;;;16.43;7.40;;;7.20;1.00;;;;;;5057048;28;20303;-84
2024/02/13 10:23:01;;;;;;;13.13;7.60;;;7.30;1.00;;;;;;5057628;28;20229;-85
2024/02/13 10:25:31;;;;;;;13.77;7.67;;;7.40;1.00;;;;;;5042770;28;20231;-83
2024/02/13 10:28:01;;;;;;;13.67;7.23;;;7.40;1.00;;;;;;5044003;28;20267;-85
2024/02/13 10:30:29;;;;;;;13.97;7.20;;;7.40;1.00;;;;;;5048576;28;20238;-84
2024/02/13 10:33:00;;;;;;;16.10;8.33;;;7.50;1.00;;;;;;5047839;28;20207;-83
2024/02/13 10:35:29;;;;;;;16.53;8.00;;;7.60;1.00;;;;;;5048685;28;20207;-83
2024/02/13 10:37:57;;;;;;;17.07;8.20;;;7.60;1.00;;;;;;5052493;28;20239;-83
2024/02/13 10:40:26;;;;;;;15.43;7.83;;;8.00;1.00;;;;;;5054977;28;20199;-83
2024/02/13 10:42:54;;;;;;;13.43;7.40;;;7.80;1.00;;;;;;5051621;28;20352;-83
2024/02/13 10:45:24;;;;;;;13.23;7.20;;;7.80;1.00;;;;;;5055734;28;20238;-83
2024/02/13 10:47:54;;;;;;;15.07;8.30;;;7.70;1.00;;;;;;5048474;28;20307;-84
2024/02/13 10:50:22;;;;;;;14.40;7.80;;;7.70;1.00;;;;;;5053069;28;20219;-84
2024/02/13 10:52:52;;;;;;;16.07;8.63;;;7.80;1.00;;;;;;5050856;28;20203;-84
2024/02/13 10:55:19;;;;;;;15.20;7.83;;;7.90;1.00;;;;;;5056215;28;20206;-83
2024/02/13 10:57:49;;;;;;;16.03;7.13;;;8.00;99.90;;;;;;5054657;28;20253;-84
2024/02/13 11:00:19;;;;;;;15.13;8.43;;;8.20;99.90;;;;;;5053845;28;20199;-83
2024/02/13 11:02:51;;;;;;;13.47;7.83;;;8.30;99.90;;;;;;5054062;28;20198;-83
2024/02/13 11:05:19;;;;;;;16.43;7.90;;;8.20;99.90;;;;;;5054570;28;20200;-84
2024/02/13 11:07:47;;;;;;;13.13;8.00;;;8.20;99.90;;;;;;5052408;28;20235;-83
2024/02/13 11:10:14;;;;;;;15.73;8.17;;;9.00;99.90;;;;;;5058201;28;20249;-84
2024/02/13 11:12:44;;;;;;;14.23;7.80;;;8.50;99.90;;;;;;5061304;28;20745;-83
2024/02/13 11:15:15;;;;;;;15.03;8.07;;;8.60;99.90;;;;;;5051705;28;20750;-84
2024/02/13 11:17:46;;;;;;;14.20;7.77;;;8.90;99.90;;;;;;5053162;28;20231;-83
2024/02/13 11:20:16;;;;;;;16.67;7.40;;;9.10;6.40;;;;;;5056398;28;20544;-84
2024/02/13 11:22:52;;;;;;;12.33;7.47;;;9.00;1.00;;;;;;5052260;28;20561;-84
2024/02/13 11:25:19;;;;;;;15.47;6.93;;;8.90;1.00;;;;;;5046629;28;20282;-83
2024/02/13 11:27:48;;;;;;;12.63;7.07;;;8.70;1.00;;;;;;5049509;28;20296;-83
2024/02/13 11:30:23;;;;;;;13.50;7.20;;;8.70;1.00;;;;;;5050426;28;20288;-84
2024/02/13 11:32:58;;;;;;;14.20;7.33;;;8.70;1.00;;;;;;5053267;28;20202;-83
2024/02/13 11:35:30;;;;;;;12.97;6.87;;;8.70;1.00;;;;;;5052704;28;20210;-84
2024/02/13 11:37:59;;;;;;;11.83;6.50;;;8.70;1.00;;;;;;5056408;28;20225;-84
2024/02/13 11:40:26;;;;;;;15.40;7.73;;;8.80;1.00;;;;;;5051933;28;20214;-84
2024/02/13 11:42:54;;;;;;;12.03;6.73;;;8.90;1.00;;;;;;5051796;28;20207;-84
2024/02/13 11:45:22;;;;;;;10.90;6.50;;;8.90;1.00;;;;;;5051599;28;20210;-83
2024/02/13 11:47:50;;;;;;;9.60;5.63;;;8.90;1.00;;;;;;5055634;28;20309;-83
2024/02/13 11:50:18;;;;;;;9.60;5.93;;;9.10;1.00;;;;;;5051198;28;20585;-83
2024/02/13 11:52:48;;;;;;;11.50;6.03;;;9.00;1.00;;;;;;5053527;28;20205;-83
2024/02/13 11:55:15;;;;;;;8.10;5.53;;;9.00;1.00;;;;;;5052418;28;20230;-84
2024/02/13 11:57:45;;;;;;;7.53;5.00;;;9.60;1.00;;;;;;5051358;28;20317;-84
2024/02/13 12:00:13;;;;;;;13.70;5.33;;;9.00;1.00;;;;;;5051189;28;20226;-83
2024/02/13 12:02:40;;;;;;;8.40;4.27;;;9.00;1.00;;;;;;5058795;28;20578;-83
2024/02/13 12:05:10;;;;;;;6.60;4.00;;;9.10;1.00;;;;;;5058229;28;20204;-83
2024/02/13 12:07:38;;;;;;;8.13;4.60;;;8.70;1.00;;;;;;5063586;28;20249;-84
2024/02/13 12:10:10;;;;;;;7.67;4.57;;;9.00;1.00;;;;;;5058805;28;20301;-83
2024/02/13 12:12:37;;;;;;;7.10;4.23;;;9.10;1.00;;;;;;5057935;28;20650;-83
2024/02/13 12:15:10;;;;;;;6.57;4.20;;;9.30;1.00;;;;;;5057713;28;20645;-83
2024/02/13 12:17:38;;;;;;;7.20;3.87;;;9.30;1.00;;;;;;5063489;28;20925;-84
2024/02/13 12:20:12;;;;;;;7.83;4.10;;;9.20;1.00;;;;;;5058565;28;20306;-84
2024/02/13 12:22:40;;;;;;;6.30;3.80;;;9.30;1.00;;;;;;5060611;28;20207;-84
2024/02/13 12:25:08;;;;;;;4.77;3.40;;;9.30;1.00;;;;;;5049178;28;20235;-84
2024/02/13 12:27:36;;;;;;;8.60;4.90;;;9.30;1.00;;;;;;5053599;28;20222;-83
2024/02/13 12:30:04;;;;;;;5.20;3.97;;;9.30;99.90;;;;;;5052641;28;20246;-83
2024/02/13 12:32:33;;;;;;;6.07;3.50;;;9.10;99.90;;;;;;5056111;28;20203;-83
2024/02/13 12:35:10;;;;;;;9.23;4.17;;;9.10;99.90;;;;;;5052670;28;20203;-84
2024/02/13 12:37:40;;;;;;;7.50;3.30;;;9.10;99.90;;;;;;5048504;28;20227;-84
2024/02/13 12:40:15;;;;;;;6.40;3.50;;;9.50;99.90;;;;;;5057322;28;20205;-83
2024/02/13 12:42:43;;;;;;;5.00;3.23;;;9.70;99.90;;;;;;5048515;28;20221;-84
2024/02/13 12:45:11;;;;;;;5.10;3.20;;;9.60;99.90;;;;;;5053152;28;20238;-83
2024/02/13 12:47:37;;;;;;;5.57;2.87;;;9.40;99.90;;;;;;5047846;28;20697;-84
2024/02/13 12:50:07;;;;;;;6.47;2.90;;;9.30;99.90;;;;;;5053554;28;20227;-82
2024/02/13 12:52:33;;;;;;;4.07;2.43;;;9.40;99.90;;;;;;5053847;28;20211;-84
2024/02/13 12:55:01;;;;;;;5.47;2.67;;;9.50;99.90;;;;;;5050710;28;20286;-83